createdAt,value
2022-10-20T00:00:02.813Z,49.71
2022-10-20T00:01:02.814Z,51.56
2022-10-20T00:02:02.804Z,60.89
2022-10-20T00:03:02.868Z,59.14
2022-10-20T00:04:02.807Z,48.45
2022-10-20T00:05:02.784Z,54.55
2022-10-20T00:06:02.774Z,48.43
2022-10-20T00:07:02.756Z,60.30
2022-10-20T00:08:02.756Z,63.81
2022-10-20T00:09:02.837Z,52.62
2022-10-20T00:10:02.735Z,49.74
2022-10-20T00:11:02.739Z,54.91
2022-10-20T00:12:02.715Z,51.89
2022-10-20T00:13:02.718Z,51.20
2022-10-20T00:14:02.718Z,59.76
2022-10-20T00:15:02.725Z,56.74
2022-10-20T00:16:03.433Z,52.81
2022-10-20T00:17:02.671Z,56.68
2022-10-20T00:18:02.676Z,61.50
2022-10-20T00:19:02.680Z,55.48
2022-10-20T00:20:02.700Z,54.26
2022-10-20T00:21:02.646Z,52.21
2022-10-20T00:22:02.645Z,52.72
2022-10-20T00:23:02.629Z,52.41
2022-10-20T00:24:02.640Z,56.87
2022-10-20T00:25:02.620Z,54.97
2022-10-20T00:26:02.597Z,48.48
2022-10-20T00:27:02.596Z,53.94
2022-10-20T00:28:02.593Z,60.17
2022-10-20T00:31:02.645Z,54.17
2022-10-20T00:32:03.724Z,51.48
2022-10-20T00:33:03.721Z,57.11
2022-10-20T00:34:03.712Z,52.63
2022-10-20T00:35:03.719Z,56.23
2022-10-20T00:36:03.715Z,49.42
2022-10-20T00:37:03.697Z,51.58
2022-10-20T00:38:03.691Z,58.35
2022-10-20T00:39:03.674Z,57.95
2022-10-20T00:40:03.670Z,55.41
2022-10-20T00:41:03.667Z,55.87
2022-10-20T00:42:03.661Z,52.46
2022-10-20T00:43:03.642Z,58.64
2022-10-20T00:44:03.639Z,57.27
2022-10-20T00:45:03.624Z,53.37
2022-10-20T00:46:03.619Z,56.71
2022-10-20T00:47:03.616Z,57.91
2022-10-20T00:48:04.540Z,58.31
2022-10-20T00:49:03.600Z,56.52
2022-10-20T00:50:03.598Z,57.35
2022-10-20T00:51:03.579Z,53.09
2022-10-20T00:52:03.575Z,60.62
2022-10-20T00:53:03.566Z,52.10
2022-10-20T00:54:03.569Z,55.28
2022-10-20T00:55:03.548Z,59.95
2022-10-20T00:56:03.551Z,58.69
2022-10-20T00:58:03.526Z,55.92
2022-10-20T00:59:03.524Z,53.43
2022-10-20T01:00:03.512Z,56.50
2022-10-20T01:01:03.510Z,59.55
2022-10-20T01:02:03.793Z,57.25
2022-10-20T01:03:03.486Z,54.39
2022-10-20T01:04:03.475Z,60.84
2022-10-20T01:05:03.482Z,60.89
2022-10-20T01:06:03.457Z,56.84
2022-10-20T01:07:03.466Z,53.43
2022-10-20T01:08:03.453Z,53.49
2022-10-20T01:09:03.501Z,56.32
2022-10-20T01:10:03.443Z,56.04
2022-10-20T01:11:03.413Z,58.96
2022-10-20T01:12:03.405Z,56.59
2022-10-20T01:13:03.405Z,57.73
2022-10-20T01:14:04.032Z,62.15
2022-10-20T01:15:03.396Z,56.29
2022-10-20T01:16:03.374Z,55.10
2022-10-20T01:17:03.369Z,53.10
2022-10-20T01:18:03.436Z,52.73
2022-10-20T01:19:03.368Z,53.56
2022-10-20T01:20:03.347Z,59.04
2022-10-20T01:21:03.335Z,52.48
2022-10-20T01:22:03.329Z,52.10
2022-10-20T01:23:03.337Z,55.78
2022-10-20T01:24:03.319Z,54.53
2022-10-20T01:25:03.311Z,55.53
2022-10-20T01:26:03.302Z,63.81
2022-10-20T01:27:03.294Z,56.79
2022-10-20T01:28:03.286Z,54.51
2022-10-20T01:29:03.277Z,57.06
2022-10-20T01:30:03.268Z,54.56
2022-10-20T01:31:03.275Z,53.15
2022-10-20T01:32:03.253Z,59.49
2022-10-20T01:33:03.259Z,61.67
2022-10-20T01:34:03.243Z,55.35
2022-10-20T01:35:03.227Z,60.12
2022-10-20T01:36:03.240Z,56.33
2022-10-20T01:37:03.215Z,58.50
2022-10-20T01:38:03.207Z,56.50
2022-10-20T01:39:03.204Z,61.35
2022-10-20T01:40:03.188Z,52.49
2022-10-20T01:41:03.194Z,52.84
2022-10-20T01:42:03.189Z,53.20
2022-10-20T01:43:03.156Z,52.77
2022-10-20T01:44:03.153Z,55.47
2022-10-20T01:45:04.109Z,52.94
2022-10-20T01:46:03.144Z,56.30
2022-10-20T01:47:03.142Z,54.43
2022-10-20T01:48:03.125Z,53.16
2022-10-20T01:49:03.133Z,51.67
2022-10-20T01:50:03.116Z,56.87
2022-10-20T01:51:03.098Z,54.80
2022-10-20T01:52:03.100Z,59.22
2022-10-20T01:53:03.111Z,55.07
2022-10-20T01:54:03.083Z,51.65
2022-10-20T01:55:03.162Z,54.07
2022-10-20T01:56:03.062Z,52.79
2022-10-20T01:57:03.050Z,53.81
2022-10-20T01:58:03.049Z,53.29
2022-10-20T01:59:03.037Z,57.80
2022-10-20T02:00:03.038Z,55.34
2022-10-20T02:01:03.044Z,52.05
2022-10-20T02:02:03.011Z,55.63
2022-10-20T02:03:03.005Z,62.36
2022-10-20T02:04:03.011Z,56.99
2022-10-20T02:05:02.996Z,54.47
2022-10-20T02:06:03.035Z,59.99
2022-10-20T02:07:02.982Z,55.60
2022-10-20T02:08:02.969Z,56.20
2022-10-20T02:09:02.986Z,53.42
2022-10-20T02:10:02.963Z,55.29
2022-10-20T02:11:02.946Z,55.93
2022-10-20T02:12:02.938Z,58.24
2022-10-20T02:13:02.932Z,54.03
2022-10-20T02:14:02.936Z,59.61
2022-10-20T02:15:02.921Z,55.25
2022-10-20T02:16:02.903Z,57.18
2022-10-20T02:17:03.609Z,53.38
2022-10-20T02:18:02.888Z,60.73
2022-10-20T02:19:02.902Z,59.76
2022-10-20T02:20:02.868Z,58.79
2022-10-20T02:21:02.859Z,58.65
2022-10-20T02:22:02.858Z,55.72
2022-10-20T02:23:02.890Z,61.33
2022-10-20T02:24:02.832Z,60.19
2022-10-20T02:25:02.828Z,60.09
2022-10-20T02:26:02.816Z,64.29
2022-10-20T02:27:02.821Z,57.11
2022-10-20T02:28:02.817Z,58.12
2022-10-20T02:29:02.797Z,64.76
2022-10-20T02:30:02.780Z,58.79
2022-10-20T02:31:02.776Z,54.00
2022-10-20T02:32:02.768Z,61.27
2022-10-20T02:33:02.758Z,59.96
2022-10-20T02:34:02.752Z,61.52
2022-10-20T02:35:05.104Z,58.79
2022-10-20T02:36:02.734Z,58.50
2022-10-20T02:37:02.762Z,55.47
2022-10-20T02:38:02.719Z,57.73
2022-10-20T02:39:02.705Z,60.06
2022-10-20T02:40:02.702Z,56.15
2022-10-20T02:41:02.695Z,58.34
2022-10-20T02:42:02.679Z,57.94
2022-10-20T02:43:02.672Z,60.55
2022-10-20T02:44:02.664Z,57.21
2022-10-20T02:45:02.663Z,56.10
2022-10-20T02:46:02.743Z,56.40
2022-10-20T02:47:02.643Z,62.19
2022-10-20T02:48:05.147Z,60.11
2022-10-20T02:49:03.626Z,60.31
2022-10-20T02:50:02.613Z,55.40
2022-10-20T02:51:02.615Z,58.64
2022-10-20T02:52:02.600Z,60.37
2022-10-20T02:53:02.593Z,58.36
2022-10-20T02:54:02.597Z,55.19
2022-10-20T02:55:02.578Z,62.52
2022-10-20T02:56:02.598Z,60.94
2022-10-20T02:57:02.557Z,57.11
2022-10-20T02:58:02.556Z,57.96
2022-10-20T02:59:02.551Z,59.20
2022-10-20T03:00:02.537Z,61.72
2022-10-20T03:01:02.531Z,60.98
2022-10-20T03:02:02.532Z,52.38
2022-10-20T03:03:02.516Z,58.72
2022-10-20T03:04:02.496Z,58.16
2022-10-20T03:05:02.503Z,56.77
2022-10-20T03:06:02.482Z,59.44
2022-10-20T03:07:02.470Z,59.27
2022-10-20T03:08:02.485Z,63.05
2022-10-20T03:09:02.548Z,61.32
2022-10-20T03:10:02.456Z,60.96
2022-10-20T03:11:02.462Z,63.46
2022-10-20T03:12:02.439Z,60.87
2022-10-20T03:13:03.127Z,61.99
2022-10-20T03:14:02.526Z,59.59
2022-10-20T03:15:02.417Z,63.97
2022-10-20T03:16:02.408Z,61.87
2022-10-20T03:17:02.412Z,65.94
2022-10-20T03:18:02.392Z,63.20
2022-10-20T03:19:05.320Z,64.22
2022-10-20T03:20:03.379Z,62.67
2022-10-20T03:21:02.383Z,65.47
2022-10-20T03:22:03.158Z,66.18
2022-10-20T03:23:02.349Z,64.98
2022-10-20T03:24:02.338Z,62.92
2022-10-20T03:25:02.335Z,63.93
2022-10-20T03:26:03.059Z,63.07
2022-10-20T03:27:02.322Z,63.01
2022-10-20T03:28:02.307Z,63.83
2022-10-20T03:29:02.300Z,65.20
2022-10-20T03:30:02.292Z,61.19
2022-10-20T03:31:02.307Z,63.00
2022-10-20T03:32:02.280Z,65.82
2022-10-20T03:33:02.267Z,64.77
2022-10-20T03:34:02.261Z,65.87
2022-10-20T03:35:02.245Z,66.32
2022-10-20T03:36:02.251Z,65.30
2022-10-20T03:37:02.230Z,64.46
2022-10-20T03:38:02.237Z,66.83
2022-10-20T03:39:02.219Z,66.97
2022-10-20T03:40:02.231Z,61.91
2022-10-20T03:42:03.197Z,60.19
2022-10-20T03:43:02.186Z,63.19
2022-10-20T03:44:03.053Z,63.69
2022-10-20T03:45:02.169Z,62.88
2022-10-20T03:46:02.180Z,63.31
2022-10-20T03:47:02.161Z,66.18
2022-10-20T03:48:02.144Z,63.72
2022-10-20T03:49:02.143Z,63.76
2022-10-20T03:50:02.288Z,65.29
2022-10-20T03:51:02.130Z,66.27
2022-10-20T03:52:02.113Z,64.93
2022-10-20T03:53:02.121Z,64.06
2022-10-20T03:54:02.104Z,64.74
2022-10-20T03:55:02.092Z,63.40
2022-10-20T03:56:02.083Z,65.48
2022-10-20T03:57:06.789Z,65.79
2022-10-20T03:58:04.074Z,63.21
2022-10-20T04:00:02.063Z,67.24
2022-10-20T04:01:02.041Z,66.32
2022-10-20T04:02:02.115Z,65.43
2022-10-20T04:03:02.033Z,64.59
2022-10-20T04:04:02.023Z,69.33
2022-10-20T04:05:02.012Z,63.83
2022-10-20T04:06:03.010Z,65.57
2022-10-20T04:07:02.003Z,68.43
2022-10-20T04:08:02.035Z,63.56
2022-10-20T04:09:02.061Z,62.15
2022-10-20T04:10:01.993Z,63.20
2022-10-20T04:11:01.998Z,63.21
2022-10-20T04:12:01.975Z,63.61
2022-10-20T04:13:01.960Z,62.71
2022-10-20T04:14:01.944Z,61.27
2022-10-20T04:15:01.948Z,64.35
2022-10-20T04:16:01.950Z,64.91
2022-10-20T04:17:01.935Z,64.71
2022-10-20T04:18:01.967Z,63.45
2022-10-20T04:19:01.911Z,65.52
2022-10-20T04:20:01.933Z,68.25
2022-10-20T04:21:01.903Z,63.24
2022-10-20T04:22:01.918Z,65.65
2022-10-20T04:23:01.884Z,66.29
2022-10-20T04:24:01.866Z,65.18
2022-10-20T04:25:01.854Z,67.40
2022-10-20T04:26:01.891Z,66.44
2022-10-20T04:27:01.843Z,66.24
2022-10-20T04:28:01.839Z,67.37
2022-10-20T04:29:01.852Z,68.42
2022-10-20T04:30:01.818Z,66.83
2022-10-20T04:31:01.812Z,66.17
2022-10-20T04:32:01.814Z,67.40
2022-10-20T04:33:01.805Z,65.44
2022-10-20T04:34:01.804Z,67.92
2022-10-20T04:35:01.780Z,68.96
2022-10-20T04:36:01.766Z,67.66
2022-10-20T04:37:01.762Z,67.97
2022-10-20T04:38:01.759Z,67.58
2022-10-20T04:39:01.759Z,66.18
2022-10-20T04:40:01.738Z,64.33
2022-10-20T04:41:04.011Z,65.57
2022-10-20T04:42:02.721Z,64.69
2022-10-20T04:43:01.774Z,65.35
2022-10-20T04:44:01.717Z,66.72
2022-10-20T04:45:03.659Z,66.08
2022-10-20T04:46:03.973Z,63.39
2022-10-20T04:47:02.690Z,66.71
2022-10-20T04:48:01.684Z,65.19
2022-10-20T04:49:01.689Z,65.93
2022-10-20T04:50:01.668Z,68.11
2022-10-20T04:51:01.654Z,64.10
2022-10-20T04:52:01.675Z,64.82
2022-10-20T04:53:01.636Z,68.37
2022-10-20T04:54:01.649Z,67.21
2022-10-20T04:55:01.647Z,66.08
2022-10-20T04:56:01.632Z,65.47
2022-10-20T04:57:01.663Z,66.22
2022-10-20T04:58:01.599Z,66.16
2022-10-20T04:59:01.588Z,67.40
2022-10-20T05:00:01.594Z,66.71
2022-10-20T05:01:02.132Z,67.06
2022-10-20T05:02:01.651Z,65.79
2022-10-20T05:03:01.607Z,69.07
2022-10-20T05:04:01.579Z,65.54
2022-10-20T05:05:01.541Z,68.14
2022-10-20T05:06:01.537Z,65.01
2022-10-20T05:07:01.537Z,65.24
2022-10-20T05:08:01.519Z,65.22
2022-10-20T05:09:01.671Z,65.50
2022-10-20T05:10:01.529Z,67.07
2022-10-20T05:11:01.503Z,69.65
2022-10-20T05:12:01.543Z,68.00
2022-10-20T05:13:01.481Z,66.98
2022-10-20T05:14:01.471Z,67.27
2022-10-20T05:15:01.477Z,67.67
2022-10-20T05:16:01.457Z,66.64
2022-10-20T05:17:03.228Z,65.85
2022-10-20T05:18:02.440Z,66.67
2022-10-20T05:19:01.444Z,70.12
2022-10-20T05:20:01.422Z,68.73
2022-10-20T05:21:09.069Z,70.61
2022-10-20T05:22:03.428Z,70.09
2022-10-20T05:23:01.402Z,70.73
2022-10-20T05:24:01.409Z,69.15
2022-10-20T05:25:24.472Z,70.41
2022-10-20T05:26:03.669Z,69.23
2022-10-20T05:27:01.388Z,67.07
2022-10-20T05:28:06.099Z,68.93
2022-10-20T05:29:01.365Z,69.34
2022-10-20T05:30:01.341Z,66.98
2022-10-20T05:31:01.709Z,69.00
2022-10-20T05:32:02.342Z,69.33
2022-10-20T05:33:01.325Z,69.48
2022-10-20T05:34:01.327Z,71.08
2022-10-20T05:35:01.311Z,67.78
2022-10-20T05:36:01.292Z,69.88
2022-10-20T05:37:01.301Z,69.64
2022-10-20T05:38:02.147Z,69.90
2022-10-20T05:39:01.267Z,70.15
2022-10-20T05:40:01.269Z,66.78
2022-10-20T05:41:01.251Z,67.83
2022-10-20T05:42:01.245Z,69.62
2022-10-20T05:43:01.276Z,70.46
2022-10-20T05:44:01.237Z,69.73
2022-10-20T05:45:01.226Z,67.70
2022-10-20T05:46:01.225Z,68.00
2022-10-20T05:47:01.214Z,69.39
2022-10-20T05:48:01.205Z,65.98
2022-10-20T05:49:01.198Z,67.92
2022-10-20T05:50:01.191Z,67.96
2022-10-20T05:51:01.181Z,67.27
2022-10-20T05:52:01.170Z,69.69
2022-10-20T05:53:01.173Z,69.22
2022-10-20T05:54:01.151Z,68.00
2022-10-20T05:55:01.176Z,67.26
2022-10-20T05:56:01.146Z,67.03
2022-10-20T05:57:01.208Z,67.58
2022-10-20T05:58:01.117Z,71.07
2022-10-20T05:59:01.121Z,69.41
2022-10-20T06:00:01.111Z,68.21
2022-10-20T06:01:01.096Z,68.45
2022-10-20T06:02:01.090Z,68.99
2022-10-20T06:03:01.088Z,70.26
2022-10-20T06:04:01.078Z,68.08
2022-10-20T06:05:01.079Z,67.40
2022-10-20T06:06:01.069Z,68.15
2022-10-20T06:07:01.052Z,69.02
2022-10-20T06:08:01.056Z,66.56
2022-10-20T06:09:01.104Z,67.60
2022-10-20T06:10:01.055Z,69.02
2022-10-20T06:11:01.025Z,67.39
2022-10-20T06:12:01.023Z,63.86
2022-10-20T06:13:02.005Z,66.19
2022-10-20T06:14:01.009Z,66.61
2022-10-20T06:15:01.005Z,65.18
2022-10-20T06:16:00.989Z,67.84
2022-10-20T06:17:00.995Z,67.46
2022-10-20T06:18:00.971Z,67.81
2022-10-20T06:19:00.954Z,69.73
2022-10-20T06:20:00.945Z,68.66
2022-10-20T06:21:00.947Z,68.13
2022-10-20T06:22:04.001Z,66.13
2022-10-20T06:23:02.921Z,67.60
2022-10-20T06:24:00.915Z,67.72
2022-10-20T06:25:00.947Z,68.12
2022-10-20T06:26:00.895Z,66.48
2022-10-20T06:27:02.188Z,65.57
2022-10-20T06:28:00.876Z,67.06
2022-10-20T06:29:04.276Z,65.94
2022-10-20T06:30:01.862Z,66.36
2022-10-20T06:31:00.887Z,67.43
2022-10-20T06:32:00.934Z,66.25
2022-10-20T06:33:00.840Z,65.04
2022-10-20T06:34:00.829Z,66.11
2022-10-20T06:35:00.833Z,69.30
2022-10-20T06:36:00.817Z,69.30
2022-10-20T06:37:00.804Z,69.21
2022-10-20T06:38:00.863Z,69.61
2022-10-20T06:39:00.785Z,70.01
2022-10-20T06:40:00.792Z,66.54
2022-10-20T06:41:01.575Z,67.53
2022-10-20T06:42:00.764Z,67.42
2022-10-20T06:43:00.761Z,68.01
2022-10-20T06:44:00.754Z,67.60
2022-10-20T06:45:00.743Z,65.01
2022-10-20T06:46:00.763Z,65.33
2022-10-20T06:47:01.599Z,65.82
2022-10-20T06:48:00.712Z,63.56
2022-10-20T06:49:00.705Z,69.62
2022-10-20T06:50:00.691Z,66.92
2022-10-20T06:51:01.589Z,67.57
2022-10-20T06:52:00.718Z,66.27
2022-10-20T06:53:00.664Z,67.51
2022-10-20T06:54:01.587Z,67.62
2022-10-20T06:55:00.668Z,66.62
2022-10-20T06:56:00.661Z,66.78
2022-10-20T06:57:00.666Z,67.55
2022-10-20T06:58:00.624Z,69.11
2022-10-20T06:59:00.619Z,68.96
2022-10-20T07:00:00.800Z,70.61
2022-10-20T07:01:00.731Z,69.16
2022-10-20T07:02:00.670Z,67.18
2022-10-20T07:03:00.596Z,68.93
2022-10-20T07:04:00.581Z,69.26
2022-10-20T07:05:00.578Z,66.65
2022-10-20T07:06:00.559Z,66.76
2022-10-20T07:07:00.558Z,67.71
2022-10-20T07:08:00.597Z,66.45
2022-10-20T07:09:00.589Z,66.14
2022-10-20T07:10:00.562Z,67.28
2022-10-20T07:11:00.527Z,66.25
2022-10-20T07:12:00.526Z,66.48
2022-10-20T07:13:00.512Z,68.38
2022-10-20T07:14:00.499Z,66.73
2022-10-20T07:15:00.488Z,67.01
2022-10-20T07:16:00.484Z,64.86
2022-10-20T07:17:00.484Z,67.29
2022-10-20T07:18:00.484Z,67.14
2022-10-20T07:19:00.458Z,69.24
2022-10-20T07:20:00.454Z,68.76
2022-10-20T07:21:00.445Z,68.37
2022-10-20T07:22:00.437Z,70.07
2022-10-20T07:23:00.430Z,66.47
2022-10-20T07:24:00.438Z,68.71
2022-10-20T07:25:00.449Z,63.82
2022-10-20T07:26:00.412Z,66.95
2022-10-20T07:27:00.396Z,66.20
2022-10-20T07:28:00.391Z,66.78
2022-10-20T07:29:01.068Z,66.88
2022-10-20T07:30:00.383Z,65.55
2022-10-20T07:31:00.358Z,65.08
2022-10-20T07:32:02.039Z,66.06
2022-10-20T07:33:00.349Z,66.98
2022-10-20T07:34:13.086Z,65.78
2022-10-20T07:35:02.347Z,70.02
2022-10-20T07:36:00.337Z,68.45
2022-10-20T07:37:00.316Z,67.10
2022-10-20T07:38:00.339Z,67.74
2022-10-20T07:39:00.306Z,67.08
2022-10-20T07:40:00.296Z,67.08
2022-10-20T07:41:01.488Z,68.99
2022-10-20T07:42:00.279Z,66.33
2022-10-20T07:43:00.268Z,67.59
2022-10-20T07:44:00.260Z,67.58
2022-10-20T07:45:00.278Z,66.37
2022-10-20T07:46:00.297Z,66.59
2022-10-20T07:47:00.236Z,68.20
2022-10-20T07:48:00.218Z,67.84
2022-10-20T07:49:23.991Z,67.13
2022-10-20T07:50:02.216Z,67.64
2022-10-20T07:51:00.216Z,66.33
2022-10-20T07:52:00.239Z,68.82
2022-10-20T07:53:00.188Z,67.60
2022-10-20T07:54:00.762Z,63.42
2022-10-20T07:55:12.323Z,67.84
2022-10-20T07:56:02.155Z,67.60
2022-10-20T07:57:00.163Z,66.75
2022-10-20T07:58:00.150Z,66.64
2022-10-20T07:59:00.158Z,65.31
2022-10-20T08:00:00.162Z,66.08
2022-10-20T08:01:00.135Z,69.57
2022-10-20T08:02:00.562Z,68.87
2022-10-20T08:03:00.109Z,65.81
2022-10-20T08:04:00.100Z,67.74
2022-10-20T08:05:00.098Z,70.27
2022-10-20T08:06:00.121Z,65.08
2022-10-20T08:07:00.083Z,65.83
2022-10-20T08:08:00.063Z,68.72
2022-10-20T08:09:00.183Z,64.28
2022-10-20T08:10:00.053Z,66.99
2022-10-20T08:11:00.042Z,66.56
2022-10-20T08:12:00.041Z,65.20
2022-10-20T08:13:00.019Z,66.53
2022-10-20T08:14:00.606Z,72.52
2022-10-20T08:15:00.026Z,65.74
2022-10-20T08:16:03.064Z,67.15
2022-10-20T08:17:01.662Z,65.70
2022-10-20T08:17:59.982Z,65.64
2022-10-20T08:19:05.573Z,67.19
2022-10-20T08:20:03.076Z,69.18
2022-10-20T08:20:59.957Z,67.82
2022-10-20T08:21:59.947Z,67.54
2022-10-20T08:22:59.938Z,65.20
2022-10-20T08:23:59.931Z,68.33
2022-10-20T08:25:00.555Z,67.53
2022-10-20T08:25:59.925Z,66.97
2022-10-20T08:26:59.954Z,65.52
2022-10-20T08:27:59.952Z,66.45
2022-10-20T08:28:59.888Z,68.21
2022-10-20T08:30:06.258Z,67.52
2022-10-20T08:31:01.883Z,66.54
2022-10-20T08:31:59.906Z,67.55
2022-10-20T08:32:59.863Z,68.53
2022-10-20T08:33:59.875Z,65.53
2022-10-20T08:34:59.848Z,67.79
2022-10-20T08:35:59.854Z,67.84
2022-10-20T08:36:59.840Z,68.93
2022-10-20T08:37:59.824Z,69.11
2022-10-20T08:39:03.485Z,66.04
2022-10-20T08:40:01.797Z,66.27
2022-10-20T08:40:59.805Z,66.53
2022-10-20T08:42:09.050Z,67.17
2022-10-20T08:43:01.784Z,66.68
2022-10-20T08:43:59.779Z,68.83
2022-10-20T08:44:59.763Z,66.69
2022-10-20T08:45:59.845Z,65.96
2022-10-20T08:46:59.756Z,66.64
2022-10-20T08:47:59.747Z,66.52
2022-10-20T08:49:00.674Z,68.30
2022-10-20T08:50:00.727Z,68.32
2022-10-20T08:50:59.726Z,67.51
2022-10-20T08:51:59.711Z,68.10
2022-10-20T08:52:59.709Z,70.54
2022-10-20T08:53:59.806Z,67.74
2022-10-20T08:54:59.698Z,67.69
2022-10-20T08:55:59.693Z,67.61
2022-10-20T08:56:59.680Z,68.32
2022-10-20T08:57:59.674Z,68.16
2022-10-20T08:58:59.653Z,68.13
2022-10-20T08:59:59.633Z,66.43
2022-10-20T09:01:00.655Z,67.78
2022-10-20T09:01:59.730Z,67.48
2022-10-20T09:02:59.618Z,67.79
2022-10-20T09:03:59.635Z,66.18
2022-10-20T09:04:59.667Z,69.43
2022-10-20T09:05:59.592Z,68.59
2022-10-20T09:06:59.589Z,67.17
2022-10-20T09:07:59.587Z,65.97
2022-10-20T09:08:59.615Z,63.85
2022-10-20T09:09:59.572Z,66.28
2022-10-20T09:10:59.557Z,67.03
2022-10-20T09:11:59.559Z,66.88
2022-10-20T09:12:59.537Z,67.46
2022-10-20T09:13:59.525Z,68.44
2022-10-20T09:14:59.599Z,65.94
2022-10-20T09:15:59.533Z,65.39
2022-10-20T09:17:00.844Z,67.92
2022-10-20T09:18:00.504Z,67.79
2022-10-20T09:18:59.492Z,70.48
2022-10-20T09:19:59.506Z,67.14
2022-10-20T09:20:59.473Z,66.36
2022-10-20T09:21:59.476Z,67.19
2022-10-20T09:23:01.419Z,68.02
2022-10-20T09:24:00.451Z,67.11
2022-10-20T09:24:59.460Z,64.86
2022-10-20T09:25:59.433Z,65.95
2022-10-20T09:27:00.265Z,65.56
2022-10-20T09:28:00.415Z,67.40
2022-10-20T09:29:12.357Z,66.65
2022-10-20T09:30:01.408Z,65.92
2022-10-20T09:30:59.392Z,66.65
2022-10-20T09:32:11.414Z,65.95
2022-10-20T09:33:01.756Z,66.30
2022-10-20T09:33:59.420Z,65.47
2022-10-20T09:34:59.364Z,66.70
2022-10-20T09:38:07.299Z,67.67
2022-10-20T09:39:07.279Z,66.61
2022-10-20T09:40:08.364Z,65.53
2022-10-20T09:41:09.372Z,68.47
2022-10-20T09:42:08.398Z,65.93
2022-10-20T09:43:08.485Z,65.48
2022-10-20T09:44:08.343Z,65.65
2022-10-20T09:45:08.419Z,63.91
2022-10-20T09:46:08.440Z,65.13
2022-10-20T09:47:08.309Z,66.42
2022-10-20T09:48:08.318Z,65.26
2022-10-20T09:49:08.345Z,62.78
2022-10-20T09:50:09.564Z,65.13
2022-10-20T09:51:08.303Z,65.71
2022-10-20T09:52:08.288Z,68.31
2022-10-20T09:53:08.281Z,67.57
2022-10-20T09:54:08.260Z,66.15
2022-10-20T09:55:09.244Z,66.42
2022-10-20T09:56:08.249Z,64.09
2022-10-20T09:57:08.284Z,67.91
2022-10-20T09:58:08.251Z,66.67
2022-10-20T09:59:08.243Z,67.45
2022-10-20T10:00:25.235Z,66.21
2022-10-20T10:01:10.319Z,65.82
2022-10-20T10:02:08.271Z,64.84
2022-10-20T10:03:08.187Z,66.28
2022-10-20T10:04:11.006Z,66.27
2022-10-20T10:05:11.070Z,65.15
2022-10-20T10:06:08.165Z,68.67
2022-10-20T10:07:08.143Z,63.87
2022-10-20T10:08:08.133Z,63.78
2022-10-20T10:09:08.199Z,66.05
2022-10-20T10:10:08.815Z,65.12
2022-10-20T10:11:08.127Z,65.84
2022-10-20T10:12:08.694Z,64.28
2022-10-20T10:13:08.118Z,67.37
2022-10-20T10:14:08.092Z,65.27
2022-10-20T10:15:08.102Z,67.80
2022-10-20T10:16:08.065Z,65.06
2022-10-20T10:17:08.077Z,65.94
2022-10-20T10:18:08.095Z,66.51
2022-10-20T10:19:08.086Z,68.91
2022-10-20T10:20:08.054Z,69.01
2022-10-20T10:21:08.083Z,65.18
2022-10-20T10:22:08.044Z,66.81
2022-10-20T10:23:08.027Z,66.31
2022-10-20T10:24:08.008Z,68.69
2022-10-20T10:25:07.996Z,66.04
2022-10-20T10:26:07.997Z,65.79
2022-10-20T10:27:08.683Z,67.23
2022-10-20T10:28:08.036Z,67.82
2022-10-20T10:29:07.963Z,66.87
2022-10-20T10:30:07.962Z,66.05
2022-10-20T10:31:07.950Z,66.46
2022-10-20T10:32:10.588Z,64.82
2022-10-20T10:33:07.942Z,65.55
2022-10-20T10:34:07.918Z,65.43
2022-10-20T10:35:07.921Z,64.87
2022-10-20T10:36:08.942Z,67.96
2022-10-20T10:37:07.937Z,66.08
2022-10-20T10:38:07.925Z,64.67
2022-10-20T10:39:07.910Z,62.71
2022-10-20T10:40:07.865Z,66.43
2022-10-20T10:41:07.856Z,66.05
2022-10-20T10:42:07.869Z,64.81
2022-10-20T10:43:07.864Z,64.75
2022-10-20T10:44:07.866Z,66.76
2022-10-20T10:45:08.669Z,65.08
2022-10-20T10:46:07.857Z,63.49
2022-10-20T10:47:07.834Z,64.92
2022-10-20T10:48:07.830Z,64.16
2022-10-20T10:49:08.695Z,65.84
2022-10-20T10:50:08.178Z,66.25
2022-10-20T10:53:15.510Z,66.13
2022-10-20T10:54:15.506Z,65.36
2022-10-20T10:55:30.525Z,67.08
2022-10-20T10:56:18.585Z,67.69
2022-10-20T10:57:16.573Z,69.14
2022-10-20T10:58:16.580Z,65.99
2022-10-20T10:59:16.560Z,66.12
2022-10-20T11:00:16.562Z,66.44
2022-10-20T11:01:16.669Z,65.83
2022-10-20T11:02:17.486Z,66.59
2022-10-20T11:03:16.542Z,67.58
2022-10-20T11:04:16.533Z,69.11
2022-10-20T11:06:17.524Z,67.59
2022-10-20T11:07:16.509Z,65.97
2022-10-20T11:08:16.485Z,66.30
2022-10-20T11:09:16.505Z,64.87
2022-10-20T11:10:16.522Z,67.73
2022-10-20T11:11:16.537Z,67.37
2022-10-20T11:12:16.582Z,66.04
2022-10-20T11:13:16.453Z,67.61
2022-10-20T11:14:16.554Z,67.62
2022-10-20T11:15:16.568Z,64.95
2022-10-20T11:16:17.396Z,66.23
2022-10-20T11:17:16.453Z,67.47
2022-10-20T11:18:16.420Z,66.28
2022-10-20T11:19:16.410Z,67.65
2022-10-20T11:20:16.404Z,68.36
2022-10-20T11:21:16.382Z,68.49
2022-10-20T11:22:16.381Z,68.17
2022-10-20T11:23:16.365Z,67.39
2022-10-20T11:24:16.359Z,68.15
2022-10-20T11:25:16.349Z,64.66
2022-10-20T11:26:16.336Z,65.97
2022-10-20T11:27:16.341Z,63.94
2022-10-20T11:28:16.323Z,65.55
2022-10-20T11:29:16.334Z,64.66
2022-10-20T11:30:16.310Z,65.61
2022-10-20T11:31:16.296Z,65.66
2022-10-20T11:32:16.310Z,66.05
2022-10-20T11:33:16.279Z,65.14
2022-10-20T11:34:16.278Z,64.35
2022-10-20T11:35:16.341Z,65.49
2022-10-20T11:36:16.257Z,65.11
2022-10-20T11:37:16.257Z,65.06
2022-10-20T11:38:16.262Z,64.60
2022-10-20T11:39:16.896Z,63.53
2022-10-20T11:40:16.234Z,64.91
2022-10-20T11:41:16.227Z,64.04
2022-10-20T11:42:16.220Z,64.96
2022-10-20T11:43:16.219Z,64.38
2022-10-20T11:44:16.201Z,67.54
2022-10-20T11:45:16.233Z,64.71
2022-10-20T11:46:16.981Z,64.11
2022-10-20T11:47:16.176Z,65.41
2022-10-20T11:48:16.180Z,63.27
2022-10-20T11:49:16.161Z,64.33
2022-10-20T11:50:16.190Z,64.68
2022-10-20T11:51:16.168Z,65.22
2022-10-20T11:52:16.143Z,64.32
2022-10-20T11:53:16.137Z,66.20
2022-10-20T11:54:16.130Z,66.88
2022-10-20T11:55:16.118Z,64.82
2022-10-20T11:56:16.116Z,65.75
2022-10-20T11:57:16.107Z,66.58
2022-10-20T11:58:17.907Z,65.13
2022-10-20T11:59:16.093Z,65.01
2022-10-20T12:00:16.109Z,68.88
2022-10-20T12:01:16.075Z,65.71
2022-10-20T12:02:16.120Z,64.75
2022-10-20T12:03:16.984Z,66.54
2022-10-20T12:04:16.054Z,66.60
2022-10-20T12:05:16.038Z,64.13
2022-10-20T12:06:16.041Z,66.46
2022-10-20T12:07:16.033Z,66.08
2022-10-20T12:08:29.399Z,63.23
2022-10-20T12:09:20.001Z,65.82
2022-10-20T12:10:17.035Z,63.40
2022-10-20T12:11:16.943Z,65.55
2022-10-20T12:12:16.987Z,64.90
2022-10-20T12:13:15.993Z,65.19
2022-10-20T12:14:15.995Z,65.27
2022-10-20T12:15:18.927Z,64.62
2022-10-20T12:16:16.965Z,63.46
2022-10-20T12:17:16.489Z,64.76
2022-10-20T12:18:15.958Z,64.47
2022-10-20T12:19:15.930Z,66.51
2022-10-20T12:20:16.929Z,65.84
2022-10-20T12:21:15.933Z,68.95
2022-10-20T12:22:15.927Z,64.83
2022-10-20T12:23:15.915Z,64.49
2022-10-20T12:24:15.894Z,64.74
2022-10-20T12:25:15.886Z,65.11
2022-10-20T12:26:15.885Z,65.94
2022-10-20T12:27:15.889Z,62.68
2022-10-20T12:28:15.872Z,64.63
2022-10-20T12:29:15.880Z,66.14
2022-10-20T12:30:15.861Z,67.20
2022-10-20T12:31:15.851Z,66.89
2022-10-20T12:32:15.844Z,65.19
2022-10-20T12:33:15.826Z,66.27
2022-10-20T12:34:15.825Z,63.48
2022-10-20T12:35:15.831Z,66.56
2022-10-20T12:36:15.809Z,67.01
2022-10-20T12:37:15.808Z,62.20
2022-10-20T12:38:15.786Z,66.21
2022-10-20T12:39:16.782Z,63.57
2022-10-20T12:40:15.777Z,66.60
2022-10-20T12:41:15.773Z,66.36
2022-10-20T12:42:15.825Z,65.10
2022-10-20T12:43:15.753Z,67.07
2022-10-20T12:44:15.787Z,65.97
2022-10-20T12:45:15.750Z,64.60
2022-10-20T12:46:15.782Z,64.15
2022-10-20T12:47:15.735Z,65.66
2022-10-20T12:48:15.755Z,64.22
2022-10-20T12:49:15.729Z,66.11
2022-10-20T12:50:15.697Z,64.03
2022-10-20T12:51:15.691Z,66.01
2022-10-20T12:52:15.682Z,64.75
2022-10-20T12:53:15.675Z,66.95
2022-10-20T12:54:16.582Z,64.19
2022-10-20T12:55:15.756Z,66.57
2022-10-20T12:56:15.651Z,67.46
2022-10-20T12:57:17.625Z,67.27
2022-10-20T12:58:15.634Z,68.64
2022-10-20T12:59:15.636Z,66.73
2022-10-20T13:00:15.638Z,67.38
2022-10-20T13:01:15.664Z,67.75
2022-10-20T13:02:15.602Z,73.79